createdAt,value
2018-04-30T00:01:57.990Z,65.00
2018-04-30T00:04:30.256Z,65.67
2018-04-30T00:07:02.629Z,65.67
2018-04-30T00:09:34.822Z,63.10
2018-04-30T00:12:07.177Z,67.40
2018-04-30T00:14:39.374Z,61.37
2018-04-30T00:17:11.705Z,60.60
2018-04-30T00:19:43.962Z,57.73
2018-04-30T00:22:16.109Z,61.10
2018-04-30T00:24:48.995Z,52.23
2018-04-30T00:27:22.104Z,57.73
2018-04-30T00:29:54.414Z,58.83
2018-04-30T00:32:27.620Z,55.77
2018-04-30T00:34:59.837Z,53.77
2018-04-30T00:37:32.060Z,53.43
2018-04-30T00:40:04.382Z,56.60
2018-04-30T00:42:36.688Z,56.17
2018-04-30T00:45:09.091Z,53.00
2018-04-30T00:47:42.207Z,53.77
2018-04-30T00:50:14.547Z,49.17
2018-04-30T00:52:46.859Z,50.60
2018-04-30T00:55:24.606Z,52.63
2018-04-30T00:58:02.380Z,55.80
2018-04-30T01:00:37.493Z,51.07
2018-04-30T01:03:10.130Z,51.47
2018-04-30T01:05:42.697Z,53.70
2018-04-30T01:08:15.012Z,48.60
2018-04-30T01:10:47.828Z,47.03
2018-04-30T01:13:22.726Z,48.63
2018-04-30T01:15:55.070Z,48.93
2018-04-30T01:18:27.950Z,49.87
2018-04-30T01:21:00.039Z,49.60
2018-04-30T01:23:33.163Z,49.87
2018-04-30T01:26:05.356Z,48.13
2018-04-30T01:28:37.614Z,58.30
2018-04-30T01:31:10.723Z,49.67
2018-04-30T01:33:43.106Z,50.83
2018-04-30T01:36:15.179Z,47.97
2018-04-30T01:38:47.236Z,50.30
2018-04-30T01:41:19.350Z,50.80
2018-04-30T01:43:51.818Z,51.13
2018-04-30T01:46:23.928Z,50.67
2018-04-30T01:48:56.234Z,49.17
2018-04-30T01:51:28.734Z,51.80
2018-04-30T01:54:01.065Z,51.47
2018-04-30T01:56:33.410Z,46.70
2018-04-30T01:59:05.895Z,45.80
2018-04-30T02:01:38.237Z,47.50
2018-04-30T02:04:10.566Z,52.40
2018-04-30T02:06:43.520Z,52.20
2018-04-30T02:09:15.827Z,47.27
2018-04-30T02:11:48.915Z,52.13
2018-04-30T02:14:21.961Z,50.87
2018-04-30T02:16:54.313Z,61.83
2018-04-30T02:19:27.530Z,75.13
2018-04-30T02:21:59.660Z,60.43
2018-04-30T02:24:32.510Z,67.40
2018-04-30T02:27:04.552Z,66.03
2018-04-30T02:29:36.950Z,68.43
2018-04-30T02:32:09.112Z,61.73
2018-04-30T02:34:41.214Z,76.00
2018-04-30T02:37:14.166Z,84.43
2018-04-30T02:39:46.333Z,82.23
2018-04-30T02:42:18.461Z,85.93
2018-04-30T02:44:51.042Z,72.03
2018-04-30T02:47:23.306Z,104.73
2018-04-30T02:49:55.502Z,71.47
2018-04-30T02:52:27.612Z,88.57
2018-04-30T02:54:59.870Z,77.07
2018-04-30T02:57:32.847Z,77.47
2018-04-30T03:00:05.793Z,71.03
2018-04-30T03:02:38.042Z,79.17
2018-04-30T03:05:10.336Z,80.83
2018-04-30T03:07:42.501Z,84.97
2018-04-30T03:10:14.663Z,78.47
2018-04-30T03:12:46.716Z,86.10
2018-04-30T03:15:18.811Z,75.10
2018-04-30T03:17:50.964Z,82.03
2018-04-30T03:20:23.866Z,79.50
2018-04-30T03:22:56.028Z,78.47
2018-04-30T03:25:28.043Z,89.37
2018-04-30T03:28:00.350Z,84.23
2018-04-30T03:30:32.956Z,87.10
2018-04-30T03:33:05.296Z,83.23
2018-04-30T03:35:37.462Z,84.03
2018-04-30T03:38:09.609Z,91.27
2018-04-30T03:40:45.886Z,91.97
2018-04-30T03:43:23.198Z,85.40
2018-04-30T03:46:00.057Z,86.20
2018-04-30T03:48:38.860Z,79.27
2018-04-30T03:51:11.164Z,73.30
2018-04-30T03:53:44.270Z,78.17
2018-04-30T03:56:16.372Z,73.27
2018-04-30T03:58:49.229Z,85.60
2018-04-30T04:01:33.858Z,80.33
2018-04-30T04:04:18.591Z,72.80
2018-04-30T04:06:56.789Z,74.07
2018-04-30T04:09:35.703Z,84.17
2018-04-30T04:12:07.769Z,75.60
2018-04-30T04:14:40.702Z,73.93
2018-04-30T04:17:12.776Z,73.53
2018-04-30T04:19:44.941Z,81.10
2018-04-30T04:22:17.006Z,75.00
2018-04-30T04:24:49.047Z,75.57
2018-04-30T04:27:21.157Z,73.03
2018-04-30T04:29:53.182Z,69.17
2018-04-30T04:32:25.222Z,71.83
2018-04-30T04:34:58.165Z,74.30
2018-04-30T04:37:30.406Z,68.97
2018-04-30T04:40:02.560Z,61.27
2018-04-30T04:42:34.602Z,60.27
2018-04-30T04:45:07.683Z,62.97
2018-04-30T04:47:39.897Z,62.33
2018-04-30T04:50:12.496Z,65.83
2018-04-30T04:52:44.544Z,62.27
2018-04-30T04:55:16.616Z,51.93
2018-04-30T04:57:48.752Z,57.23
2018-04-30T05:00:20.924Z,52.77
2018-04-30T05:02:53.888Z,49.13
2018-04-30T05:08:27.079Z,44.20
2018-04-30T05:10:59.270Z,43.30
2018-04-30T05:13:31.412Z,40.30
2018-04-30T05:16:03.777Z,42.87
2018-04-30T05:18:36.111Z,42.20
2018-04-30T05:21:08.111Z,41.03
2018-04-30T05:23:40.142Z,40.23
2018-04-30T05:26:12.277Z,41.63
2018-04-30T05:28:44.630Z,37.03
2018-04-30T05:31:16.782Z,39.77
2018-04-30T05:33:48.923Z,40.93
2018-04-30T05:36:21.137Z,43.57
2018-04-30T05:38:53.232Z,49.47
2018-04-30T05:41:25.360Z,45.97
2018-04-30T05:43:57.515Z,47.70
2018-04-30T05:46:29.560Z,46.17
2018-04-30T05:49:01.949Z,41.70
2018-04-30T05:51:34.181Z,47.07
2018-04-30T05:54:06.591Z,49.70
2018-04-30T05:56:38.765Z,45.50
2018-04-30T05:59:10.878Z,45.10
2018-04-30T06:01:43.659Z,48.07
2018-04-30T06:04:16.596Z,42.83
2018-04-30T06:06:49.864Z,45.03
2018-04-30T06:09:21.993Z,45.27
2018-04-30T06:11:54.950Z,43.53
2018-04-30T06:14:27.117Z,41.27
2018-04-30T06:16:59.270Z,41.00
2018-04-30T06:19:31.898Z,39.23
2018-04-30T06:22:04.480Z,41.40
2018-04-30T06:24:37.330Z,42.07
2018-04-30T06:27:10.006Z,36.93
2018-04-30T06:29:42.361Z,38.97
2018-04-30T06:32:14.655Z,39.13
2018-04-30T06:34:46.823Z,37.20
2018-04-30T06:37:18.978Z,36.60
2018-04-30T06:39:52.092Z,34.53
2018-04-30T06:42:24.138Z,39.53
2018-04-30T06:44:56.473Z,40.73
2018-04-30T06:47:28.802Z,38.63
2018-04-30T06:50:01.798Z,35.70
2018-04-30T06:52:34.754Z,31.77
2018-04-30T06:55:07.101Z,33.37
2018-04-30T06:57:39.297Z,31.70
2018-04-30T07:00:11.602Z,35.70
2018-04-30T07:02:44.570Z,31.23
2018-04-30T07:05:17.651Z,33.50
2018-04-30T07:07:50.030Z,34.87
2018-04-30T07:10:22.709Z,35.40
2018-04-30T07:12:54.867Z,35.47
2018-04-30T07:15:26.965Z,33.57
2018-04-30T07:17:59.849Z,34.20
2018-04-30T07:20:32.792Z,35.37
2018-04-30T07:23:04.821Z,35.87
2018-04-30T07:25:36.937Z,33.57
2018-04-30T07:28:09.043Z,38.10
2018-04-30T07:30:41.990Z,38.67
2018-04-30T07:33:14.441Z,40.13
2018-04-30T07:35:47.389Z,37.50
2018-04-30T07:38:19.857Z,39.17
2018-04-30T07:40:52.422Z,37.13
2018-04-30T07:43:25.274Z,39.77
2018-04-30T07:45:57.397Z,35.60
2018-04-30T07:48:29.539Z,38.87
2018-04-30T07:51:01.710Z,37.47
2018-04-30T07:53:34.823Z,39.63
2018-04-30T07:56:07.171Z,40.10
2018-04-30T07:58:40.057Z,43.60
2018-04-30T08:01:12.083Z,45.27
2018-04-30T08:03:44.224Z,45.87
2018-04-30T08:06:16.676Z,46.13
2018-04-30T08:08:49.631Z,51.17
2018-04-30T08:11:21.787Z,51.07
2018-04-30T08:13:54.204Z,52.37
2018-04-30T08:16:27.287Z,54.03
2018-04-30T08:19:00.239Z,55.47
2018-04-30T08:21:32.579Z,59.57
2018-04-30T08:24:04.868Z,52.43
2018-04-30T08:26:37.898Z,54.10
2018-04-30T08:29:10.914Z,53.83
2018-04-30T08:31:43.389Z,52.80
2018-04-30T08:34:15.742Z,55.23
2018-04-30T08:36:48.893Z,56.50
2018-04-30T08:39:21.207Z,54.03
2018-04-30T08:41:54.121Z,56.43
2018-04-30T08:44:26.301Z,53.83
2018-04-30T08:46:58.577Z,50.93
2018-04-30T08:49:30.665Z,52.43
2018-04-30T08:52:03.099Z,56.03
2018-04-30T08:54:35.346Z,49.77
2018-04-30T08:57:07.494Z,47.70
2018-04-30T08:59:40.377Z,47.30
2018-04-30T09:02:13.321Z,51.70
2018-04-30T09:04:46.182Z,52.53
2018-04-30T09:07:18.490Z,49.07
2018-04-30T09:09:50.811Z,44.43
2018-04-30T09:12:22.915Z,44.40
2018-04-30T09:14:55.303Z,46.50
2018-04-30T09:17:28.173Z,47.23
2018-04-30T09:20:00.474Z,49.13
2018-04-30T09:22:33.217Z,44.73
2018-04-30T09:25:05.414Z,43.43
2018-04-30T09:27:37.557Z,41.20
2018-04-30T09:30:09.706Z,39.30
2018-04-30T09:32:41.822Z,39.57
2018-04-30T09:35:14.114Z,40.40
2018-04-30T09:37:46.597Z,37.10
2018-04-30T09:40:19.563Z,31.03
2018-04-30T09:42:51.660Z,29.73
2018-04-30T09:45:23.963Z,27.23
2018-04-30T09:48:03.200Z,26.30
2018-04-30T09:50:35.498Z,27.27
2018-04-30T09:53:08.131Z,23.73
2018-04-30T09:55:40.366Z,23.67
2018-04-30T09:58:13.539Z,23.60
2018-04-30T10:00:45.866Z,21.47
2018-04-30T10:03:18.084Z,18.63
2018-04-30T10:05:51.032Z,15.73
2018-04-30T10:08:23.332Z,15.30
2018-04-30T10:10:55.426Z,12.53
2018-04-30T10:13:28.606Z,10.50
2018-04-30T10:16:01.560Z,12.13
2018-04-30T10:18:33.963Z,17.43
2018-04-30T10:21:07.052Z,9.20
2018-04-30T10:23:40.069Z,9.87
2018-04-30T10:26:12.140Z,8.27
2018-04-30T10:28:44.582Z,8.83
2018-04-30T10:31:17.537Z,9.13
2018-04-30T10:33:49.728Z,8.47
2018-04-30T10:36:22.166Z,8.57
2018-04-30T10:38:55.303Z,8.97
2018-04-30T10:41:28.636Z,8.33
2018-04-30T10:44:00.771Z,8.43
2018-04-30T10:46:33.711Z,7.97
2018-04-30T10:49:05.748Z,7.50
2018-04-30T10:51:37.897Z,7.67
2018-04-30T10:54:10.264Z,7.63
2018-04-30T10:56:43.159Z,7.23
2018-04-30T10:59:15.271Z,7.80
2018-04-30T11:01:47.454Z,7.27
2018-04-30T11:04:20.418Z,8.53
2018-04-30T11:06:52.843Z,7.93
2018-04-30T11:09:25.535Z,9.93
2018-04-30T11:11:57.775Z,9.70
2018-04-30T11:14:29.941Z,10.47
2018-04-30T11:17:02.426Z,9.70
2018-04-30T11:19:35.174Z,11.03
2018-04-30T11:22:07.608Z,6.43
2018-04-30T11:24:39.962Z,5.50
2018-04-30T11:27:13.099Z,4.50
2018-04-30T11:29:45.471Z,4.23
2018-04-30T11:32:18.236Z,5.23
2018-04-30T11:34:50.460Z,4.27
2018-04-30T11:37:23.615Z,6.17
2018-04-30T11:39:56.744Z,5.27
2018-04-30T11:42:29.114Z,5.50
2018-04-30T11:45:01.494Z,5.90
2018-04-30T11:47:34.630Z,5.27
2018-04-30T11:50:07.089Z,5.40
2018-04-30T11:52:39.463Z,5.20
2018-04-30T11:55:11.893Z,5.17
2018-04-30T11:57:44.439Z,4.60
2018-04-30T12:00:16.816Z,3.67
2018-04-30T12:02:48.956Z,4.13
2018-04-30T12:05:21.261Z,4.70
2018-04-30T12:07:53.595Z,4.00
2018-04-30T12:10:26.071Z,4.30
2018-04-30T12:12:58.287Z,5.23
2018-04-30T12:15:31.407Z,3.70
2018-04-30T12:18:03.762Z,3.90
2018-04-30T12:20:36.757Z,3.90
2018-04-30T12:23:09.103Z,5.93
2018-04-30T12:25:42.195Z,3.60
2018-04-30T12:28:14.378Z,3.70
2018-04-30T12:30:47.467Z,3.30
2018-04-30T12:33:20.541Z,3.83
2018-04-30T12:35:52.623Z,3.37
2018-04-30T12:38:25.579Z,4.27
2018-04-30T12:40:57.759Z,3.23
2018-04-30T12:43:30.166Z,3.57
2018-04-30T12:46:02.381Z,6.50
2018-04-30T12:48:34.723Z,3.43
2018-04-30T12:51:07.089Z,3.13
2018-04-30T12:53:39.270Z,3.30
2018-04-30T12:56:11.568Z,3.33
2018-04-30T12:58:43.969Z,3.50
2018-04-30T13:01:16.353Z,3.40
2018-04-30T13:03:49.285Z,4.47
2018-04-30T13:06:21.657Z,4.80
2018-04-30T13:08:54.073Z,3.27
2018-04-30T13:11:26.392Z,3.77
2018-04-30T13:13:58.886Z,3.20
2018-04-30T13:16:31.909Z,2.97
2018-04-30T13:19:04.210Z,3.57
2018-04-30T13:21:36.433Z,3.10
2018-04-30T13:24:08.508Z,3.07
2018-04-30T13:26:40.605Z,3.10
2018-04-30T13:29:13.574Z,4.17
2018-04-30T13:31:46.545Z,4.00
2018-04-30T13:34:18.833Z,3.10
2018-04-30T13:36:51.737Z,3.03
2018-04-30T13:39:23.962Z,3.50
2018-04-30T13:41:56.571Z,2.87
2018-04-30T13:44:28.962Z,3.97
2018-04-30T13:47:01.133Z,2.87
2018-04-30T13:49:33.447Z,3.63
2018-04-30T13:52:05.707Z,4.53
2018-04-30T13:54:37.794Z,5.30
2018-04-30T13:57:10.339Z,2.57
2018-04-30T13:59:42.433Z,2.70
2018-04-30T14:02:14.689Z,3.20
2018-04-30T14:04:46.968Z,2.50
2018-04-30T14:07:19.148Z,2.37
2018-04-30T14:09:51.267Z,2.63
2018-04-30T14:12:23.395Z,2.93
2018-04-30T14:14:56.150Z,2.80
2018-04-30T14:17:28.301Z,2.50
2018-04-30T14:20:01.539Z,3.27
2018-04-30T14:22:33.800Z,2.67
2018-04-30T14:25:06.797Z,4.47
2018-04-30T14:27:39.731Z,2.60
2018-04-30T14:30:12.396Z,2.43
2018-04-30T14:32:44.704Z,3.67
2018-04-30T14:35:17.164Z,2.30
2018-04-30T14:37:49.294Z,3.40
2018-04-30T14:40:22.621Z,2.37
2018-04-30T14:42:54.942Z,2.33
2018-04-30T14:45:28.045Z,2.70
2018-04-30T14:48:00.969Z,3.23
2018-04-30T14:50:33.173Z,3.27
2018-04-30T14:53:05.347Z,4.27
2018-04-30T14:55:38.317Z,3.03
2018-04-30T14:58:10.588Z,2.90
2018-04-30T15:00:42.893Z,2.60
2018-04-30T15:03:15.251Z,2.80
2018-04-30T15:05:48.230Z,3.10
2018-04-30T15:08:20.412Z,2.30
2018-04-30T15:10:52.600Z,2.47
2018-04-30T15:13:25.836Z,2.43
2018-04-30T15:15:57.896Z,2.27
2018-04-30T15:18:30.045Z,3.13
2018-04-30T15:21:02.155Z,2.17
2018-04-30T15:23:35.002Z,2.03
2018-04-30T15:26:07.177Z,3.63
2018-04-30T15:28:39.226Z,2.53
2018-04-30T15:31:11.351Z,3.17
2018-04-30T15:33:44.267Z,3.83
2018-04-30T15:36:16.467Z,5.20
2018-04-30T15:38:48.529Z,2.47
2018-04-30T15:41:20.658Z,3.13
2018-04-30T15:43:52.759Z,2.60
2018-04-30T15:46:24.959Z,2.50
2018-04-30T15:48:57.957Z,2.23
2018-04-30T15:51:31.067Z,3.50
2018-04-30T15:54:03.177Z,2.10
2018-04-30T15:56:35.284Z,4.30
2018-04-30T15:59:08.388Z,1.83
2018-04-30T16:01:40.774Z,1.70
2018-04-30T16:04:13.144Z,2.13
2018-04-30T16:06:45.257Z,2.70
2018-04-30T16:09:17.398Z,2.53
2018-04-30T16:11:49.579Z,1.00
2018-04-30T16:14:21.686Z,1.43
2018-04-30T16:16:54.673Z,3.03
2018-04-30T16:19:27.613Z,1.93
2018-04-30T16:21:59.688Z,1.37
2018-04-30T16:24:31.863Z,1.57
2018-04-30T16:27:04.161Z,2.20
2018-04-30T16:29:36.542Z,1.93
2018-04-30T16:32:10.551Z,1.00
2018-04-30T16:34:43.641Z,1.20
2018-04-30T16:37:16.497Z,0.83
2018-04-30T16:39:48.565Z,1.00
2018-04-30T16:42:20.735Z,0.90
2018-04-30T16:44:52.764Z,0.80
2018-04-30T16:47:24.914Z,1.10
2018-04-30T16:49:57.073Z,0.90
2018-04-30T16:52:29.194Z,1.40
2018-04-30T16:55:01.357Z,2.40
2018-04-30T16:57:33.453Z,0.90
2018-04-30T17:00:06.426Z,1.10
2018-04-30T17:02:39.348Z,2.50
2018-04-30T17:05:11.554Z,0.93
2018-04-30T17:07:43.970Z,2.10
2018-04-30T17:10:17.046Z,0.80
2018-04-30T17:12:50.050Z,1.23
2018-04-30T17:15:23.227Z,3.03
2018-04-30T17:17:56.875Z,3.90
2018-04-30T17:20:29.145Z,1.30
2018-04-30T17:23:01.346Z,0.77
2018-04-30T17:25:34.562Z,0.80
2018-04-30T17:28:07.536Z,1.27
2018-04-30T17:30:39.731Z,2.00
2018-04-30T17:33:11.991Z,1.83
2018-04-30T17:35:44.926Z,1.97
2018-04-30T17:38:17.325Z,2.70
2018-04-30T17:40:49.456Z,2.67
2018-04-30T17:43:22.366Z,2.00
2018-04-30T17:45:54.513Z,4.80
2018-04-30T17:48:26.638Z,3.17
2018-04-30T17:50:59.468Z,1.63
2018-04-30T17:53:31.554Z,0.90
2018-04-30T17:56:03.690Z,1.73
2018-04-30T17:58:35.805Z,0.80
2018-04-30T18:01:08.698Z,1.77
2018-04-30T18:03:41.690Z,2.33
2018-04-30T18:06:14.634Z,6.63
2018-04-30T18:08:46.815Z,2.20
2018-04-30T18:11:19.496Z,0.80
2018-04-30T18:13:51.821Z,0.97
2018-04-30T18:16:23.932Z,0.73
2018-04-30T18:18:56.084Z,1.83
2018-04-30T18:21:28.531Z,0.90
2018-04-30T18:24:00.876Z,2.97
2018-04-30T18:26:33.804Z,2.17
2018-04-30T18:29:05.996Z,2.07
2018-04-30T18:31:38.133Z,2.33
2018-04-30T18:34:10.227Z,2.27
2018-04-30T18:36:42.726Z,3.93
2018-04-30T18:39:16.069Z,2.93
2018-04-30T18:41:48.301Z,1.43
2018-04-30T18:44:21.238Z,1.10
2018-04-30T18:46:53.575Z,1.27
2018-04-30T18:49:26.005Z,0.70
2018-04-30T18:51:58.293Z,1.07
2018-04-30T18:54:30.534Z,1.33
2018-04-30T18:57:02.846Z,1.10
2018-04-30T18:59:35.797Z,2.83
2018-04-30T19:02:07.936Z,1.10
2018-04-30T19:04:40.048Z,1.77
2018-04-30T19:07:12.811Z,1.90
2018-04-30T19:09:44.932Z,4.93
2018-04-30T19:12:17.033Z,1.60
2018-04-30T19:14:50.215Z,1.40
2018-04-30T19:17:22.296Z,3.27
2018-04-30T19:19:54.705Z,1.87
2018-04-30T19:22:27.659Z,1.20
2018-04-30T19:24:59.751Z,1.33
2018-04-30T19:27:32.788Z,1.60
2018-04-30T19:30:04.974Z,2.43
2018-04-30T19:32:37.137Z,2.27
2018-04-30T19:35:09.297Z,4.53
2018-04-30T19:37:41.511Z,2.23
2018-04-30T19:40:13.820Z,2.33
2018-04-30T19:42:46.212Z,1.30
2018-04-30T19:45:18.649Z,1.37
2018-04-30T19:47:51.496Z,1.47
2018-04-30T19:50:23.843Z,1.20
2018-04-30T19:52:56.130Z,2.17
2018-04-30T19:55:28.799Z,1.90
2018-04-30T19:58:00.922Z,1.33
2018-04-30T20:00:33.780Z,1.00
2018-04-30T20:03:05.858Z,0.80
2018-04-30T20:05:38.820Z,0.70
2018-04-30T20:08:10.914Z,0.73
2018-04-30T20:10:43.834Z,1.17
2018-04-30T20:13:16.010Z,1.70
2018-04-30T20:15:48.100Z,0.47
2018-04-30T20:18:20.238Z,0.60
2018-04-30T20:20:52.346Z,1.37
2018-04-30T20:23:24.425Z,1.50
2018-04-30T20:25:56.549Z,0.50
2018-04-30T20:28:28.573Z,2.07
2018-04-30T20:31:00.829Z,0.57
2018-04-30T20:33:33.633Z,0.70
2018-04-30T20:36:05.940Z,1.43
2018-04-30T20:38:38.146Z,2.20
2018-04-30T20:41:10.208Z,0.87
2018-04-30T20:43:42.272Z,1.53
2018-04-30T20:46:14.327Z,0.80
2018-04-30T20:48:46.403Z,1.23
2018-04-30T20:51:18.480Z,1.30
2018-04-30T20:53:51.443Z,0.60
2018-04-30T20:56:23.512Z,0.50
2018-04-30T20:58:55.648Z,2.70
2018-04-30T21:01:27.761Z,1.77
2018-04-30T21:04:00.725Z,1.53
2018-04-30T21:06:33.123Z,1.37
2018-04-30T21:09:23.663Z,1.40
2018-04-30T21:11:55.856Z,1.87
2018-04-30T21:14:28.086Z,0.97
2018-04-30T21:17:00.392Z,0.80
2018-04-30T21:19:32.787Z,0.67
2018-04-30T21:22:04.955Z,1.10
2018-04-30T21:24:37.437Z,1.13
2018-04-30T21:27:09.604Z,0.60
2018-04-30T21:29:41.675Z,1.87
2018-04-30T21:32:13.752Z,1.00
2018-04-30T21:34:46.733Z,1.03
2018-04-30T21:37:19.664Z,1.17
2018-04-30T21:39:51.749Z,1.47
2018-04-30T21:42:23.892Z,0.93
2018-04-30T21:44:56.425Z,0.80
2018-04-30T21:47:28.771Z,2.13
2018-04-30T21:50:01.605Z,0.67
2018-04-30T21:52:34.533Z,1.37
2018-04-30T21:55:06.629Z,1.10
2018-04-30T21:57:38.756Z,2.10
2018-04-30T22:00:11.896Z,0.63
2018-04-30T22:02:44.758Z,0.80
2018-04-30T22:05:16.889Z,0.60
2018-04-30T22:07:49.035Z,0.70
2018-04-30T22:10:21.122Z,0.60
2018-04-30T22:12:53.295Z,1.23
2018-04-30T22:15:25.445Z,0.90
2018-04-30T22:17:57.614Z,0.60
2018-04-30T22:20:29.811Z,0.83
2018-04-30T22:23:01.883Z,1.80
2018-04-30T22:25:34.048Z,0.80
2018-04-30T22:28:06.159Z,0.80
2018-04-30T22:30:39.037Z,0.70
2018-04-30T22:33:12.190Z,0.87
2018-04-30T22:35:44.328Z,0.93
2018-04-30T22:38:16.454Z,0.90
2018-04-30T22:40:49.402Z,0.80
2018-04-30T22:43:21.568Z,1.00
2018-04-30T22:45:53.651Z,1.00
2018-04-30T22:48:25.727Z,1.00
2018-04-30T22:50:57.851Z,1.30
2018-04-30T22:53:29.891Z,1.10
2018-04-30T22:56:02.430Z,1.13
2018-04-30T22:58:35.598Z,1.20
2018-04-30T23:01:07.711Z,1.30
2018-04-30T23:03:39.820Z,1.17
2018-04-30T23:06:12.712Z,1.07
2018-04-30T23:08:45.534Z,1.73
2018-04-30T23:11:17.638Z,1.30
2018-04-30T23:13:49.734Z,1.50
2018-04-30T23:16:21.918Z,1.53
2018-04-30T23:18:54.079Z,1.83
2018-04-30T23:21:26.488Z,2.07
2018-04-30T23:23:58.737Z,2.70
2018-04-30T23:26:30.943Z,2.90
2018-04-30T23:29:16.588Z,3.20
2018-04-30T23:31:48.723Z,3.03
2018-04-30T23:34:20.899Z,3.20
2018-04-30T23:36:53.050Z,4.07
2018-04-30T23:39:25.133Z,4.43
2018-04-30T23:41:57.224Z,4.43
2018-04-30T23:44:29.288Z,4.27
2018-04-30T23:47:01.328Z,4.33
2018-04-30T23:49:33.514Z,5.20
2018-04-30T23:52:05.585Z,5.20
2018-04-30T23:54:37.631Z,7.53
2018-04-30T23:57:09.999Z,7.17
2018-04-30T23:59:42.112Z,8.23
